createdAt,value
2023-05-25T00:02:58.157Z,67.40
2023-05-25T00:06:02.453Z,67.40
2023-05-25T00:09:06.320Z,67.40
2023-05-25T00:12:09.894Z,67.30
2023-05-25T00:15:13.710Z,67.50
2023-05-25T00:21:21.598Z,67.70
2023-05-25T00:24:24.695Z,67.70
2023-05-25T00:27:27.815Z,67.70
2023-05-25T00:30:31.242Z,67.50
2023-05-25T00:33:35.822Z,67.60
2023-05-25T00:36:39.047Z,67.50
2023-05-25T00:39:42.305Z,67.50
2023-05-25T00:42:45.734Z,67.30
2023-05-25T00:45:49.945Z,67.20
2023-05-25T00:48:57.174Z,67.10
2023-05-25T00:52:00.379Z,67.00
2023-05-25T00:55:05.241Z,66.80
2023-05-25T00:58:09.557Z,66.70
2023-05-25T01:01:15.235Z,66.70
2023-05-25T01:04:22.471Z,66.60
2023-05-25T01:07:27.794Z,66.40
2023-05-25T01:10:34.279Z,66.50
2023-05-25T01:13:39.230Z,66.50
2023-05-25T01:16:43.972Z,66.50
2023-05-25T01:20:08.204Z,66.60
2023-05-25T01:23:18.029Z,66.80
2023-05-25T01:26:25.041Z,66.70
2023-05-25T01:29:30.806Z,67.00
2023-05-25T01:32:35.374Z,67.00
2023-05-25T01:35:39.992Z,67.20
2023-05-25T01:38:44.768Z,67.20
2023-05-25T01:41:48.036Z,67.00
2023-05-25T01:44:51.846Z,67.10
2023-05-25T01:48:02.718Z,67.30
2023-05-25T01:51:16.262Z,67.30
2023-05-25T01:54:24.148Z,67.60
2023-05-25T01:57:30.111Z,67.60
2023-05-25T02:00:34.529Z,67.90
2023-05-25T02:03:38.930Z,67.90
2023-05-25T02:06:42.149Z,67.90
2023-05-25T02:09:46.889Z,68.20
2023-05-25T02:12:49.940Z,68.30
2023-05-25T02:15:54.192Z,68.50
2023-05-25T02:18:58.233Z,68.50
2023-05-25T02:22:01.581Z,69.00
2023-05-25T02:25:08.971Z,69.10
2023-05-25T02:28:12.169Z,69.00
2023-05-25T02:31:18.774Z,69.30
2023-05-25T02:34:24.668Z,69.50
2023-05-25T02:37:27.959Z,69.40
2023-05-25T02:40:33.264Z,69.50
2023-05-25T02:43:39.376Z,69.80
2023-05-25T02:46:42.635Z,69.90
2023-05-25T02:49:46.099Z,69.90
2023-05-25T02:52:49.266Z,70.00
2023-05-25T02:55:54.032Z,70.20
2023-05-25T02:58:57.388Z,70.20
2023-05-25T03:02:00.944Z,70.40
2023-05-25T03:05:04.750Z,70.70
2023-05-25T03:08:08.580Z,70.60
2023-05-25T03:11:13.345Z,70.60
2023-05-25T03:14:16.550Z,70.80
2023-05-25T03:17:19.693Z,70.70
2023-05-25T03:20:24.704Z,71.00
2023-05-25T03:23:28.149Z,71.10
2023-05-25T03:26:32.790Z,71.00
2023-05-25T03:29:36.132Z,71.00
2023-05-25T03:32:39.413Z,71.00
2023-05-25T03:35:42.930Z,70.90
2023-05-25T03:38:47.074Z,71.10
2023-05-25T03:41:51.803Z,71.10
2023-05-25T03:44:54.962Z,71.00
2023-05-25T03:47:58.275Z,71.40
2023-05-25T03:51:01.450Z,71.60
2023-05-25T03:54:04.800Z,71.70
2023-05-25T03:57:09.642Z,71.70
2023-05-25T04:00:14.081Z,71.80
2023-05-25T04:03:17.434Z,71.70
2023-05-25T04:06:25.641Z,71.60
2023-05-25T04:09:28.868Z,71.60
2023-05-25T04:12:33.349Z,71.50
2023-05-25T04:15:36.601Z,71.80
2023-05-25T04:18:39.739Z,71.80
2023-05-25T04:21:43.283Z,71.70
2023-05-25T04:24:46.394Z,71.50
2023-05-25T04:27:51.401Z,71.40
2023-05-25T04:30:57.064Z,71.10
2023-05-25T04:34:02.589Z,70.90
2023-05-25T04:37:08.996Z,70.80
2023-05-25T04:40:14.421Z,71.10
2023-05-25T04:43:20.488Z,71.00
2023-05-25T04:46:23.681Z,70.70
2023-05-25T04:49:27.535Z,70.80
2023-05-25T04:52:30.708Z,70.80
2023-05-25T04:55:33.823Z,70.70
2023-05-25T04:58:38.608Z,70.30
2023-05-25T05:01:41.957Z,69.80
2023-05-25T05:04:44.985Z,69.30
2023-05-25T05:07:48.200Z,68.60
2023-05-25T05:10:51.474Z,68.30
2023-05-25T05:13:56.159Z,67.90
2023-05-25T05:16:59.246Z,67.20
2023-05-25T05:20:02.444Z,66.40
2023-05-25T05:23:05.902Z,65.90
2023-05-25T05:26:11.315Z,65.20
2023-05-25T05:29:16.998Z,64.60
2023-05-25T05:32:20.272Z,64.00
2023-05-25T05:35:23.586Z,63.50
2023-05-25T05:38:26.756Z,63.50
2023-05-25T05:41:30.574Z,62.50
2023-05-25T05:44:35.028Z,62.20
2023-05-25T05:47:38.163Z,61.70
2023-05-25T05:50:42.379Z,62.50
2023-05-25T05:53:45.670Z,61.50
2023-05-25T05:56:48.850Z,61.50
2023-05-25T05:59:55.167Z,60.70
2023-05-25T06:02:58.324Z,60.00
2023-05-25T06:06:01.827Z,59.70
2023-05-25T06:09:06.831Z,58.90
2023-05-25T06:12:10.907Z,58.90
2023-05-25T06:15:15.690Z,58.40
2023-05-25T06:18:18.786Z,58.20
2023-05-25T06:21:21.824Z,57.70
2023-05-25T06:24:25.459Z,58.70
2023-05-25T06:27:28.584Z,58.40
2023-05-25T06:30:33.296Z,57.40
2023-05-25T06:33:36.331Z,56.50
2023-05-25T06:36:39.490Z,55.80
2023-05-25T06:39:43.444Z,56.60
2023-05-25T06:42:46.814Z,55.20
2023-05-25T06:45:51.364Z,54.50
2023-05-25T06:48:54.550Z,54.60
2023-05-25T06:51:57.602Z,55.00
2023-05-25T06:55:00.977Z,56.00
2023-05-25T06:58:04.366Z,56.20
2023-05-25T07:01:08.870Z,56.30
2023-05-25T07:04:11.931Z,55.80
2023-05-25T07:07:15.130Z,55.70
2023-05-25T07:10:19.075Z,54.60
2023-05-25T07:13:22.197Z,53.50
2023-05-25T07:16:26.672Z,53.40
2023-05-25T07:19:29.926Z,53.50
2023-05-25T07:22:33.067Z,51.80
2023-05-25T07:25:36.276Z,53.00
2023-05-25T07:28:39.536Z,52.30
2023-05-25T07:31:44.564Z,52.60
2023-05-25T07:34:47.909Z,51.00
2023-05-25T07:37:58.123Z,51.30
2023-05-25T07:41:01.369Z,52.10
2023-05-25T07:44:04.705Z,52.20
2023-05-25T07:47:09.275Z,51.50
2023-05-25T07:50:13.031Z,51.00
2023-05-25T07:53:16.175Z,50.50
2023-05-25T07:56:19.503Z,50.70
2023-05-25T07:59:22.570Z,51.60
2023-05-25T08:02:27.538Z,51.40
2023-05-25T08:05:30.872Z,52.20
2023-05-25T08:08:34.420Z,52.50
2023-05-25T08:11:37.674Z,52.50
2023-05-25T08:14:41.304Z,52.30
2023-05-25T08:17:45.958Z,53.20
2023-05-25T08:20:49.433Z,52.50
2023-05-25T08:23:53.928Z,52.60
2023-05-25T08:26:57.382Z,52.80
2023-05-25T08:30:03.417Z,52.00
2023-05-25T08:33:08.083Z,52.10
2023-05-25T08:36:11.883Z,52.30
2023-05-25T08:39:15.805Z,52.40
2023-05-25T08:42:19.164Z,52.40
2023-05-25T08:45:34.200Z,52.20
2023-05-25T08:48:42.755Z,52.60
2023-05-25T08:51:51.028Z,51.80
2023-05-25T08:54:59.616Z,52.60
2023-05-25T08:58:11.347Z,52.50
2023-05-25T09:01:19.604Z,52.20
2023-05-25T09:04:24.571Z,52.60
2023-05-25T09:07:28.596Z,51.60
2023-05-25T09:10:35.389Z,52.40
2023-05-25T09:13:38.814Z,52.80
2023-05-25T09:16:42.774Z,53.70
2023-05-25T09:19:47.941Z,53.00
2023-05-25T09:22:51.536Z,51.90
2023-05-25T09:25:55.968Z,51.40
2023-05-25T09:28:59.172Z,51.10
2023-05-25T09:32:02.478Z,49.90
2023-05-25T09:35:12.092Z,49.80
2023-05-25T09:38:18.714Z,50.00
2023-05-25T09:41:22.461Z,50.50
2023-05-25T09:44:25.577Z,49.80
2023-05-25T09:47:29.126Z,49.70
2023-05-25T09:50:33.703Z,49.70
2023-05-25T09:53:36.978Z,48.70
2023-05-25T09:56:40.111Z,49.20
2023-05-25T09:59:43.683Z,49.20
2023-05-25T10:02:46.749Z,49.90
2023-05-25T10:05:53.970Z,49.20
2023-05-25T10:08:59.009Z,48.50
2023-05-25T10:12:03.242Z,48.70
2023-05-25T10:15:08.783Z,49.40
2023-05-25T10:18:15.452Z,48.80
2023-05-25T10:21:21.912Z,49.80
2023-05-25T10:24:32.761Z,50.00
2023-05-25T10:27:40.525Z,49.80
2023-05-25T10:30:45.038Z,50.00
2023-05-25T10:33:52.049Z,50.20
2023-05-25T10:36:59.601Z,49.80
2023-05-25T10:40:03.773Z,50.30
2023-05-25T10:43:08.042Z,50.00
2023-05-25T10:46:12.602Z,49.70
2023-05-25T10:49:26.706Z,50.50
2023-05-25T10:52:32.180Z,50.90
2023-05-25T10:55:44.270Z,50.10
2023-05-25T10:58:49.752Z,49.90
2023-05-25T11:01:52.862Z,48.50
2023-05-25T11:05:29.664Z,48.50
2023-05-25T11:08:51.077Z,49.30
2023-05-25T11:12:05.164Z,49.70
2023-05-25T11:15:16.825Z,50.40
2023-05-25T11:18:20.050Z,50.40
2023-05-25T11:21:40.656Z,50.70
2023-05-25T11:24:46.152Z,50.00
2023-05-25T11:27:49.261Z,50.80
2023-05-25T11:30:52.485Z,50.20
2023-05-25T11:33:59.470Z,49.40
2023-05-25T11:37:03.842Z,49.40
2023-05-25T11:40:10.791Z,49.30
2023-05-25T11:43:16.335Z,49.50
2023-05-25T11:46:19.925Z,49.90
2023-05-25T11:49:23.299Z,49.40
2023-05-25T11:52:26.567Z,48.80
2023-05-25T11:55:31.202Z,49.70
2023-05-25T11:58:35.758Z,48.90
2023-05-25T12:01:39.132Z,49.10
2023-05-25T12:04:43.125Z,49.40
2023-05-25T12:07:47.410Z,48.80
2023-05-25T12:10:55.050Z,48.40
2023-05-25T12:13:58.475Z,48.70
2023-05-25T12:17:02.118Z,48.20
2023-05-25T12:20:07.786Z,48.60
2023-05-25T12:23:11.619Z,48.90
2023-05-25T12:26:19.110Z,48.80
2023-05-25T12:29:22.393Z,49.60
2023-05-25T12:32:25.659Z,49.40
2023-05-25T12:35:29.144Z,49.60
2023-05-25T12:38:32.439Z,49.40
2023-05-25T12:41:50.683Z,49.60
2023-05-25T12:45:01.162Z,49.40
2023-05-25T12:48:04.578Z,49.10
2023-05-25T12:51:09.892Z,49.30
2023-05-25T12:54:13.074Z,49.50
2023-05-25T12:57:18.867Z,50.00
2023-05-25T13:00:23.663Z,49.20
2023-05-25T13:03:27.120Z,49.40
2023-05-25T13:06:30.618Z,49.10
2023-05-25T13:09:33.938Z,48.70
2023-05-25T13:12:38.600Z,49.40
2023-05-25T13:15:41.595Z,49.40
2023-05-25T13:18:44.756Z,49.90
2023-05-25T13:21:49.279Z,49.60
2023-05-25T13:24:52.611Z,49.80
2023-05-25T13:27:59.892Z,50.70
2023-05-25T13:31:03.496Z,51.20
2023-05-25T13:34:06.613Z,51.20
2023-05-25T13:37:09.766Z,51.40
2023-05-25T13:40:13.653Z,51.20
2023-05-25T13:43:18.299Z,51.20
2023-05-25T13:46:33.722Z,51.60
2023-05-25T13:49:38.199Z,50.10
2023-05-25T13:52:41.511Z,49.70
2023-05-25T13:55:44.711Z,49.50
2023-05-25T13:58:49.517Z,49.20
2023-05-25T14:01:54.315Z,49.90
2023-05-25T14:04:59.193Z,50.20
2023-05-25T14:08:05.063Z,50.00
2023-05-25T14:11:08.225Z,50.30
2023-05-25T14:14:27.022Z,49.70
2023-05-25T14:17:33.709Z,49.90
2023-05-25T14:20:38.259Z,50.00
2023-05-25T14:23:41.686Z,49.70
2023-05-25T14:26:44.919Z,49.90
2023-05-25T14:29:50.927Z,49.80
2023-05-25T14:32:54.251Z,50.10
2023-05-25T14:35:57.689Z,49.60
2023-05-25T14:39:01.408Z,49.40
2023-05-25T14:42:07.397Z,49.60
2023-05-25T14:45:14.539Z,48.60
2023-05-25T14:48:23.203Z,48.90
2023-05-25T14:51:26.669Z,48.90
2023-05-25T14:54:29.820Z,48.60
2023-05-25T14:57:32.993Z,48.60
2023-05-25T15:00:37.423Z,48.60
2023-05-25T15:03:40.843Z,48.50
2023-05-25T15:06:44.061Z,48.60
2023-05-25T15:09:47.343Z,49.10
2023-05-25T15:12:50.834Z,49.70
2023-05-25T15:15:57.743Z,49.50
2023-05-25T15:19:00.956Z,49.10
2023-05-25T15:22:04.284Z,48.80
2023-05-25T15:25:07.660Z,48.50
2023-05-25T15:28:11.108Z,48.30
2023-05-25T15:31:16.610Z,48.70
2023-05-25T15:34:19.712Z,48.10
2023-05-25T15:37:22.758Z,48.10
2023-05-25T15:40:25.988Z,48.50
2023-05-25T15:43:28.983Z,48.30
2023-05-25T15:46:33.830Z,48.20
2023-05-25T15:49:37.482Z,48.20
2023-05-25T15:52:41.590Z,47.90
2023-05-25T15:55:44.974Z,47.30
2023-05-25T15:58:49.461Z,47.70
2023-05-25T16:01:54.580Z,47.50
2023-05-25T16:04:59.844Z,47.60
2023-05-25T16:08:03.254Z,47.80
2023-05-25T16:11:07.249Z,48.00
2023-05-25T16:14:10.812Z,48.20
2023-05-25T16:17:15.566Z,48.20
2023-05-25T16:20:19.113Z,48.40
2023-05-25T16:23:22.836Z,48.80
2023-05-25T16:26:27.079Z,49.10
2023-05-25T16:29:30.500Z,49.50
2023-05-25T16:32:35.740Z,49.80
2023-05-25T16:35:39.178Z,49.70
2023-05-25T16:38:44.202Z,50.20
2023-05-25T16:41:51.839Z,50.50
2023-05-25T16:44:55.065Z,50.30
2023-05-25T16:47:59.769Z,50.20
2023-05-25T16:51:02.853Z,50.30
2023-05-25T16:54:07.310Z,50.20
2023-05-25T16:57:12.063Z,50.00
2023-05-25T17:00:16.336Z,50.70
2023-05-25T17:03:21.143Z,50.70
2023-05-25T17:06:24.469Z,51.00
2023-05-25T17:09:27.675Z,50.90
2023-05-25T17:12:30.916Z,51.20
2023-05-25T17:15:34.163Z,51.20
2023-05-25T17:18:38.932Z,51.40
2023-05-25T17:21:42.566Z,51.50
2023-05-25T17:24:45.549Z,52.00
2023-05-25T17:27:48.651Z,52.30
2023-05-25T17:30:51.960Z,52.50
2023-05-25T17:33:56.907Z,52.70
2023-05-25T17:37:00.398Z,53.00
2023-05-25T17:40:04.862Z,53.20
2023-05-25T17:43:07.968Z,53.00
2023-05-25T17:46:11.072Z,53.20
2023-05-25T17:49:16.155Z,53.20
2023-05-25T17:52:19.170Z,53.30
2023-05-25T17:55:22.396Z,53.30
2023-05-25T17:58:25.866Z,53.30
2023-05-25T18:01:29.059Z,53.40
2023-05-25T18:04:33.443Z,53.50
2023-05-25T18:07:37.800Z,53.70
2023-05-25T18:10:41.049Z,54.20
2023-05-25T18:13:44.331Z,54.40
2023-05-25T18:16:47.539Z,54.30
2023-05-25T18:19:52.010Z,54.30
2023-05-25T18:22:55.257Z,54.50
2023-05-25T18:25:58.241Z,54.60
2023-05-25T18:29:01.343Z,54.70
2023-05-25T18:32:04.627Z,54.60
2023-05-25T18:35:10.305Z,54.70
2023-05-25T18:38:13.388Z,55.00
2023-05-25T18:41:16.892Z,55.20
2023-05-25T18:44:20.540Z,55.40
2023-05-25T18:47:23.676Z,55.40
2023-05-25T18:50:28.228Z,55.50
2023-05-25T18:53:31.289Z,55.80
2023-05-25T18:56:34.338Z,55.70
2023-05-25T18:59:37.393Z,55.90
2023-05-25T19:02:40.920Z,56.40
2023-05-25T19:05:45.906Z,56.20
2023-05-25T19:08:49.911Z,56.60
2023-05-25T19:11:52.887Z,56.60
2023-05-25T19:14:57.973Z,56.60
2023-05-25T19:18:04.624Z,56.80
2023-05-25T19:21:09.498Z,57.00
2023-05-25T19:24:12.500Z,57.10
2023-05-25T19:27:16.128Z,57.10
2023-05-25T19:30:19.466Z,57.10
2023-05-25T19:33:22.540Z,57.30
2023-05-25T19:36:27.540Z,57.50
2023-05-25T19:39:31.645Z,57.40
2023-05-25T19:42:34.815Z,57.60
2023-05-25T19:45:38.006Z,57.80
2023-05-25T19:48:41.555Z,57.90
2023-05-25T19:51:46.332Z,58.00
2023-05-25T19:54:50.790Z,58.00
2023-05-25T19:57:54.963Z,58.10
2023-05-25T20:00:58.308Z,58.20
2023-05-25T20:04:01.990Z,58.30
2023-05-25T20:07:06.879Z,58.40
2023-05-25T20:10:10.197Z,58.60
2023-05-25T20:13:13.372Z,58.70
2023-05-25T20:16:16.932Z,58.70
2023-05-25T20:19:23.882Z,58.90
2023-05-25T20:22:28.506Z,58.40
2023-05-25T20:25:31.687Z,57.50
2023-05-25T20:28:34.835Z,56.80
2023-05-25T20:31:37.985Z,56.40
2023-05-25T20:34:41.145Z,55.80
2023-05-25T20:37:46.304Z,55.80
2023-05-25T20:40:50.668Z,55.50
2023-05-25T20:43:53.746Z,55.50
2023-05-25T20:46:57.192Z,55.60
2023-05-25T20:50:01.536Z,55.40
2023-05-25T20:53:06.169Z,55.20
2023-05-25T20:56:09.249Z,55.20
2023-05-25T20:59:12.495Z,55.10
2023-05-25T21:02:15.857Z,55.10
2023-05-25T21:05:18.922Z,55.20
2023-05-25T21:08:24.375Z,55.20
2023-05-25T21:11:27.450Z,55.50
2023-05-25T21:14:30.855Z,55.50
2023-05-25T21:17:34.016Z,55.60
2023-05-25T21:20:37.378Z,55.40
2023-05-25T21:23:42.119Z,55.50
2023-05-25T21:26:45.164Z,55.50
2023-05-25T21:29:48.353Z,55.50
2023-05-25T21:32:51.710Z,55.70
2023-05-25T21:35:54.913Z,55.70
2023-05-25T21:38:59.504Z,55.70
2023-05-25T21:42:03.415Z,55.90
2023-05-25T21:45:07.609Z,55.80
2023-05-25T21:48:10.686Z,55.90
2023-05-25T21:51:13.834Z,55.90
2023-05-25T21:54:19.017Z,56.10
2023-05-25T21:57:22.272Z,56.20
2023-05-25T22:00:25.551Z,56.10
2023-05-25T22:03:29.244Z,56.30
2023-05-25T22:06:32.782Z,56.30
2023-05-25T22:09:37.482Z,56.50
2023-05-25T22:12:40.555Z,56.60
2023-05-25T22:15:44.813Z,56.70
2023-05-25T22:18:47.989Z,56.90
2023-05-25T22:21:53.425Z,57.10
2023-05-25T22:24:57.926Z,57.10
2023-05-25T22:28:01.028Z,57.30
2023-05-25T22:31:04.179Z,57.30
2023-05-25T22:34:07.349Z,57.50
2023-05-25T22:37:11.497Z,57.90
2023-05-25T22:40:16.239Z,57.90
2023-05-25T22:43:19.259Z,58.30
2023-05-25T22:46:23.336Z,58.30
2023-05-25T22:49:26.486Z,58.30
2023-05-25T22:52:29.515Z,58.30
2023-05-25T22:55:34.488Z,58.60
2023-05-25T22:58:37.480Z,58.90
2023-05-25T23:01:40.972Z,59.00
2023-05-25T23:04:44.276Z,59.50
2023-05-25T23:07:47.494Z,59.80
2023-05-25T23:10:52.332Z,59.90
2023-05-25T23:13:55.670Z,60.10
2023-05-25T23:16:58.997Z,60.40
2023-05-25T23:20:02.911Z,60.70
2023-05-25T23:23:05.974Z,60.70
2023-05-25T23:26:10.616Z,60.90
2023-05-25T23:29:13.810Z,60.80
2023-05-25T23:32:18.639Z,60.90
2023-05-25T23:35:22.418Z,61.40
2023-05-25T23:38:25.577Z,61.60
2023-05-25T23:41:32.681Z,61.70
2023-05-25T23:44:35.713Z,61.80
2023-05-25T23:47:39.074Z,62.10
2023-05-25T23:50:42.499Z,62.30
2023-05-25T23:53:45.672Z,62.50
2023-05-25T23:56:50.150Z,62.50
2023-05-25T23:59:53.451Z,62.80
